Time;durP1;ratioP1;P1;durP2;ratioP2;P2;SDS_P1;SDS_P2;PMS_P1;PMS_P2;Temp;Humidity;BMP_temperature;BMP_pressure;BME280_temperature;BME280_humidity;BME280_pressure;Samples;Min_cycle;Max_cycle;Signal;HPM_P1;HPM_P2
2022/09/16 00:02:22;;;;;;;6.00;0.90;;;;;;;13.05;81.53;99218.30;106160;1270;25246;-66
2022/09/16 00:04:53;;;;;;;4.80;0.80;;;;;;;13.05;81.47;99220.65;106245;1270;22580;-65
2022/09/16 00:07:25;;;;;;;3.90;0.80;;;;;;;13.04;81.37;99217.48;106110;1269;22551;-65
2022/09/16 00:09:56;;;;;;;3.60;0.70;;;;;;;13.04;81.31;99222.68;106264;1270;22581;-67
2022/09/16 00:12:28;;;;;;;3.30;0.80;;;;;;;13.04;81.39;99223.45;106283;1270;24295;-66
2022/09/16 00:14:59;;;;;;;6.00;0.80;;;;;;;13.03;81.61;99231.13;106362;1269;22531;-67
2022/09/16 00:17:31;;;;;;;4.40;0.80;;;;;;;13.02;81.38;99234.23;106231;1270;27159;-66
2022/09/16 00:20:03;;;;;;;6.50;1.30;;;;;;;13.01;81.41;99232.86;106204;1270;22744;-68
2022/09/16 00:22:34;;;;;;;5.70;1.00;;;;;;;13.01;81.37;99233.84;106209;1270;22545;-66
2022/09/16 00:25:07;;;;;;;5.10;0.90;;;;;;;13.02;81.43;99238.93;106148;1270;24243;-66
2022/09/16 00:27:39;;;;;;;3.20;0.70;;;;;;;13.01;81.47;99238.98;106047;1270;23386;-68
2022/09/16 00:30:12;;;;;;;4.60;0.80;;;;;;;13.00;81.40;99241.23;106272;1270;24295;-67
2022/09/16 00:32:46;;;;;;;9.70;0.80;;;;;;;12.99;81.44;99246.23;106178;1270;25265;-66
2022/09/16 00:35:18;;;;;;;2.90;0.60;;;;;;;12.97;81.42;99246.15;106155;1270;22619;-66
2022/09/16 00:37:49;;;;;;;5.90;0.70;;;;;;;12.95;81.51;99241.48;106208;1270;22680;-66
2022/09/16 00:40:21;;;;;;;4.80;0.70;;;;;;;12.92;81.35;99242.36;106218;1270;22727;-68
2022/09/16 00:42:53;;;;;;;7.30;0.90;;;;;;;12.91;81.64;99239.47;106442;1270;22626;-67
2022/09/16 00:45:26;;;;;;;3.30;0.70;;;;;;;12.91;81.66;99239.48;106197;1270;24775;-65
2022/09/16 00:48:02;;;;;;;5.80;0.90;;;;;;;12.91;81.73;99241.15;106052;1270;22666;-67
2022/09/16 00:50:39;;;;;;;8.60;0.70;;;;;;;12.91;81.66;99240.73;106146;1270;25577;-67
2022/09/16 00:53:15;;;;;;;5.20;0.70;;;;;;;12.90;81.76;99238.30;106177;1270;25337;-66
2022/09/16 00:55:48;;;;;;;8.00;0.80;;;;;;;12.89;81.63;99238.98;106215;1270;27409;-69
2022/09/16 00:58:25;;;;;;;4.90;1.30;;;;;;;12.87;81.66;99241.06;106183;1270;23190;-67
2022/09/16 01:00:58;;;;;;;5.90;0.90;;;;;;;12.86;81.78;99241.69;106186;1270;22606;-66
2022/09/16 01:03:31;;;;;;;4.60;0.90;;;;;;;12.85;81.89;99245.71;106100;1270;25321;-66
2022/09/16 01:06:03;;;;;;;6.40;0.70;;;;;;;12.83;81.93;99246.02;106086;1270;22520;-66
2022/09/16 01:08:34;;;;;;;4.90;0.80;;;;;;;12.82;81.99;99245.38;106098;1270;24947;-66
2022/09/16 01:11:06;;;;;;;6.10;0.70;;;;;;;12.81;81.88;99247.77;106118;1270;22616;-68
2022/09/16 01:13:38;;;;;;;6.20;0.80;;;;;;;12.82;81.86;99250.42;106273;1270;23954;-68
2022/09/16 01:16:15;;;;;;;2.00;0.60;;;;;;;12.81;81.72;99251.23;106160;1270;22993;-67
2022/09/16 01:18:56;;;;;;;4.20;0.50;;;;;;;12.83;81.73;99253.46;106148;1269;26495;-67
2022/09/16 01:21:43;;;;;;;5.50;0.60;;;;;;;12.84;81.77;99254.17;106106;1270;24425;-67
2022/09/16 01:24:40;;;;;;;3.80;0.50;;;;;;;12.85;81.54;99253.04;106283;1270;24215;-66
2022/09/16 01:27:44;;;;;;;5.00;0.60;;;;;;;12.87;81.60;99253.34;106002;1270;22542;-68
2022/09/16 01:30:31;;;;;;;5.00;0.60;;;;;;;12.89;81.51;99257.30;106102;1270;22630;-68
2022/09/16 01:33:07;;;;;;;3.10;0.40;;;;;;;12.91;81.42;99254.85;106112;1270;22545;-67
2022/09/16 01:35:51;;;;;;;7.70;0.60;;;;;;;12.92;81.28;99252.80;106071;1270;22534;-66
2022/09/16 01:38:34;;;;;;;4.70;0.60;;;;;;;12.94;81.20;99251.36;106167;1270;22564;-67
2022/09/16 01:41:14;;;;;;;3.80;0.80;;;;;;;12.96;81.00;99254.60;106162;1270;22528;-71
2022/09/16 01:43:56;;;;;;;5.00;0.60;;;;;;;12.97;80.90;99252.40;106177;1270;23103;-67
2022/09/16 01:46:38;;;;;;;4.90;0.60;;;;;;;12.98;80.99;99250.67;102117;1270;5433019;-67
2022/09/16 01:49:18;;;;;;;8.80;0.70;;;;;;;12.99;80.87;99253.31;106139;1270;25327;-66
2022/09/16 01:51:58;;;;;;;6.40;0.70;;;;;;;13.00;80.81;99251.77;106129;1270;22525;-66
2022/09/16 01:54:38;;;;;;;8.40;0.50;;;;;;;13.01;80.80;99255.70;106178;1270;22564;-67
2022/09/16 01:57:15;;;;;;;7.30;0.80;;;;;;;13.03;80.73;99252.78;106181;1270;22526;-66
2022/09/16 01:59:50;;;;;;;7.90;0.70;;;;;;;13.04;80.57;99257.74;106146;1270;23011;-68
2022/09/16 02:02:25;;;;;;;8.20;0.70;;;;;;;13.04;80.63;99254.93;106195;1270;24727;-66
2022/09/16 02:05:00;;;;;;;4.70;0.50;;;;;;;13.05;80.72;99256.41;106133;1270;24313;-67
2022/09/16 02:07:38;;;;;;;3.40;0.60;;;;;;;13.05;80.61;99247.15;106308;1269;22554;-66
2022/09/16 02:10:15;;;;;;;3.90;0.60;;;;;;;13.05;80.70;99248.56;106264;1270;24240;-67
2022/09/16 02:12:50;;;;;;;6.30;0.50;;;;;;;13.05;80.79;99249.02;106049;1270;22492;-66
2022/09/16 02:15:25;;;;;;;7.70;0.70;;;;;;;13.05;80.56;99251.63;106217;1270;23972;-67
2022/09/16 02:18:02;;;;;;;5.10;0.70;;;;;;;13.05;80.80;99252.08;106158;1270;22554;-68
2022/09/16 02:20:38;;;;;;;8.00;0.60;;;;;;;13.05;80.90;99252.39;106325;1270;22552;-67
2022/09/16 02:23:14;;;;;;;3.30;0.60;;;;;;;13.05;80.62;99244.48;106314;1270;25349;-66
2022/09/16 02:25:48;;;;;;;2.60;0.50;;;;;;;13.04;80.58;99247.44;106170;1270;22782;-66
2022/09/16 02:28:25;;;;;;;12.60;0.80;;;;;;;13.02;80.60;99254.66;106049;1269;24422;-66
2022/09/16 02:31:00;;;;;;;4.80;0.60;;;;;;;13.01;80.56;99252.94;106255;1270;22570;-66
2022/09/16 02:33:34;;;;;;;3.30;0.70;;;;;;;13.00;80.63;99257.02;106068;1270;25261;-67
2022/09/16 02:36:09;;;;;;;2.80;0.70;;;;;;;13.01;80.68;99259.01;106491;1270;22761;-67
2022/09/16 02:38:46;;;;;;;4.70;0.80;;;;;;;13.01;80.66;99255.80;106316;1270;22550;-68
2022/09/16 02:41:19;;;;;;;4.90;0.70;;;;;;;12.99;80.69;99257.02;106431;1270;22573;-69
2022/09/16 02:43:51;;;;;;;5.70;0.60;;;;;;;13.00;80.68;99260.29;106432;1270;22534;-68
2022/09/16 02:46:34;;;;;;;4.50;0.60;;;;;;;12.99;80.64;99265.80;106431;1270;25358;-68
2022/09/16 02:49:14;;;;;;;5.70;0.50;;;;;;;12.99;80.63;99259.89;106489;1270;22484;-67
2022/09/16 02:51:59;;;;;;;6.10;1.10;;;;;;;12.99;80.61;99260.60;106628;1270;25411;-68
2022/09/16 02:54:37;;;;;;;5.90;0.60;;;;;;;12.98;80.65;99261.97;106403;1270;22459;-68
2022/09/16 02:57:09;;;;;;;5.50;0.80;;;;;;;12.98;80.67;99259.29;106123;1270;24234;-67
2022/09/16 02:59:41;;;;;;;3.70;0.60;;;;;;;12.97;80.45;99263.21;106156;1269;24246;-66
2022/09/16 03:02:13;;;;;;;4.70;0.40;;;;;;;12.97;80.48;99267.95;106150;1270;25314;-69
2022/09/16 03:04:44;;;;;;;4.00;0.90;;;;;;;12.96;80.47;99269.94;106053;1269;22625;-67
2022/09/16 03:07:17;;;;;;;2.80;0.40;;;;;;;12.96;80.12;99266.98;106106;1270;24485;-67
2022/09/16 03:09:51;;;;;;;10.10;0.50;;;;;;;12.96;80.10;99264.90;106278;1270;25392;-68
2022/09/16 03:12:36;;;;;;;3.70;0.40;;;;;;;12.97;80.09;99260.55;106200;1270;22526;-66
2022/09/16 03:15:33;;;;;;;2.10;0.30;;;;;;;12.98;80.11;99262.59;106132;1270;24736;-66
2022/09/16 03:18:27;;;;;;;4.80;0.50;;;;;;;12.98;80.05;99262.23;106045;1270;25474;-66
2022/09/16 03:21:05;;;;;;;3.10;0.30;;;;;;;12.99;80.02;99262.44;105656;1274;22608;-67
2022/09/16 03:23:49;;;;;;;5.30;0.60;;;;;;;13.00;80.15;99261.70;105717;1274;22551;-67
2022/09/16 03:26:32;;;;;;;4.70;0.50;;;;;;;13.00;80.04;99266.81;105731;1274;22578;-67
2022/09/16 03:29:16;;;;;;;3.70;0.50;;;;;;;13.00;80.18;99270.02;105849;1274;25528;-69
2022/09/16 03:31:54;;;;;;;3.40;0.40;;;;;;;13.00;80.25;99278.58;105706;1276;24290;-67
2022/09/16 03:34:30;;;;;;;3.60;0.30;;;;;;;12.99;80.85;99281.37;105685;1275;22634;-67
2022/09/16 03:37:07;;;;;;;2.40;0.40;;;;;;;12.94;81.55;99281.31;105745;1275;22558;-66
2022/09/16 03:39:40;;;;;;;4.20;0.40;;;;;;;12.86;81.67;99275.70;105650;1274;25313;-67
2022/09/16 03:42:12;;;;;;;3.20;0.40;;;;;;;12.80;82.10;99272.63;105616;1274;22564;-66
2022/09/16 03:44:43;;;;;;;7.00;0.50;;;;;;;12.74;82.23;99273.84;105771;1274;22548;-67
2022/09/16 03:47:15;;;;;;;1.80;0.40;;;;;;;12.70;82.58;99271.36;105702;1275;25213;-68
2022/09/16 03:49:46;;;;;;;3.40;0.40;;;;;;;12.66;82.81;99274.99;105764;1274;22550;-70
2022/09/16 03:52:18;;;;;;;4.30;0.40;;;;;;;12.63;83.13;99272.22;105744;1274;25329;-67
2022/09/16 03:54:50;;;;;;;4.30;0.50;;;;;;;12.59;83.28;99264.99;105669;1275;23711;-67
2022/09/16 03:57:22;;;;;;;6.20;0.40;;;;;;;12.56;83.26;99261.20;105734;1274;22537;-67
2022/09/16 03:59:54;;;;;;;5.40;0.40;;;;;;;12.52;83.50;99266.81;106111;1270;25316;-68
2022/09/16 04:02:25;;;;;;;1.90;0.30;;;;;;;12.49;83.69;99272.88;106405;1270;25512;-67
2022/09/16 04:04:57;;;;;;;3.30;0.80;;;;;;;12.45;84.05;99267.96;106123;1270;24231;-68
2022/09/16 04:07:28;;;;;;;2.60;0.40;;;;;;;12.41;84.14;99270.27;106267;1270;25922;-66
2022/09/16 04:10:02;;;;;;;4.30;0.60;;;;;;;12.40;84.36;99266.15;106001;1270;24374;-67
2022/09/16 04:12:34;;;;;;;2.40;0.40;;;;;;;12.39;84.54;99265.45;106110;1270;25522;-67
2022/09/16 04:15:06;;;;;;;4.20;0.50;;;;;;;12.37;84.78;99268.15;106157;1270;22549;-68
2022/09/16 04:17:38;;;;;;;3.00;0.60;;;;;;;12.37;84.81;99267.74;106175;1270;22546;-67
2022/09/16 04:20:10;;;;;;;3.20;0.50;;;;;;;12.37;85.04;99270.04;106097;1270;22542;-68
2022/09/16 04:22:42;;;;;;;8.70;1.10;;;;;;;12.37;85.19;99266.73;106109;1270;22850;-67
2022/09/16 04:25:13;;;;;;;4.30;0.50;;;;;;;12.36;85.19;99272.83;106128;1270;25264;-67
2022/09/16 04:27:45;;;;;;;7.00;0.70;;;;;;;12.36;85.52;99274.41;106159;1270;25491;-68
2022/09/16 04:30:17;;;;;;;5.60;1.30;;;;;;;12.37;85.59;99273.09;106160;1270;22532;-67
2022/09/16 04:32:52;;;;;;;6.70;0.70;;;;;;;12.38;85.58;99277.40;106198;1270;24457;-66
2022/09/16 04:35:24;;;;;;;3.80;0.70;;;;;;;12.39;85.85;99281.77;106374;1270;25547;-67
2022/09/16 04:37:55;;;;;;;4.40;0.50;;;;;;;12.39;86.00;99275.63;106007;1270;24228;-67
2022/09/16 04:40:29;;;;;;;4.40;0.90;;;;;;;12.38;86.18;99274.51;106360;1270;22548;-66
2022/09/16 04:43:01;;;;;;;5.40;0.60;;;;;;;12.37;86.43;99275.73;106145;1270;22477;-67
2022/09/16 04:45:32;;;;;;;4.40;0.60;;;;;;;12.35;86.64;99276.90;106297;1270;25293;-67
2022/09/16 04:48:04;;;;;;;4.80;0.50;;;;;;;12.34;86.72;99276.60;106094;1270;25244;-67
2022/09/16 04:50:35;;;;;;;7.10;0.60;;;;;;;12.35;86.85;99276.75;106190;1270;25500;-67
2022/09/16 04:53:07;;;;;;;4.70;0.70;;;;;;;12.35;86.87;99276.96;106236;1270;24316;-68
2022/09/16 04:55:40;;;;;;;4.00;0.80;;;;;;;12.35;87.38;99280.33;106347;1270;24208;-67
2022/09/16 04:58:12;;;;;;;5.40;0.70;;;;;;;12.31;87.69;99280.64;106146;1270;22687;-68
2022/09/16 05:00:43;;;;;;;4.70;0.70;;;;;;;12.28;87.15;99283.89;106411;1270;25499;-66
2022/09/16 05:03:17;;;;;;;3.20;0.60;;;;;;;12.26;86.76;99278.89;105983;1269;22563;-66
2022/09/16 05:05:48;;;;;;;4.40;0.60;;;;;;;12.24;86.11;99280.71;106019;1270;25524;-66
2022/09/16 05:08:20;;;;;;;3.10;0.50;;;;;;;12.22;86.31;99284.23;106121;1270;25327;-68
2022/09/16 05:10:52;;;;;;;2.80;0.30;;;;;;;12.19;86.37;99277.67;106009;1270;25526;-67
2022/09/16 05:13:24;;;;;;;5.30;0.50;;;;;;;12.18;86.23;99275.48;106064;1270;25244;-69
2022/09/16 05:15:56;;;;;;;3.00;1.30;;;;;;;12.17;85.90;99281.45;106016;1270;23176;-68
2022/09/16 05:18:28;;;;;;;2.80;0.40;;;;;;;12.15;85.75;99276.72;106146;1270;22544;-67
2022/09/16 05:21:02;;;;;;;2.90;0.30;;;;;;;12.12;85.83;99277.07;106125;1270;22532;-68
2022/09/16 05:23:34;;;;;;;2.90;0.50;;;;;;;12.10;85.91;99275.66;106058;1269;22551;-68
2022/09/16 05:26:10;;;;;;;6.80;0.70;;;;;;;12.09;86.02;99276.16;105981;1270;22548;-69
2022/09/16 05:28:42;;;;;;;3.00;0.60;;;;;;;12.08;86.12;99277.20;106139;1270;22534;-67
2022/09/16 05:31:16;;;;;;;6.00;0.50;;;;;;;12.08;86.18;99280.03;106017;1270;22526;-67
2022/09/16 05:33:54;;;;;;;2.70;0.40;;;;;;;12.10;86.37;99279.84;106124;1270;22861;-67
2022/09/16 05:36:26;;;;;;;4.60;0.50;;;;;;;12.12;86.56;99275.49;106202;1270;24239;-67
2022/09/16 05:38:59;;;;;;;4.00;0.50;;;;;;;12.13;86.49;99278.55;106046;1270;22662;-68
2022/09/16 05:41:31;;;;;;;4.30;0.80;;;;;;;12.14;86.52;99277.70;106100;1270;25321;-70
2022/09/16 05:44:06;;;;;;;2.60;0.50;;;;;;;12.15;86.75;99284.25;106003;1270;22535;-69
2022/09/16 05:46:39;;;;;;;2.20;0.60;;;;;;;12.15;86.69;99280.28;106051;1269;25410;-67
2022/09/16 05:49:11;;;;;;;7.20;0.70;;;;;;;12.18;87.06;99284.80;106036;1270;22544;-71
2022/09/16 05:51:43;;;;;;;7.50;0.70;;;;;;;12.22;87.23;99285.09;106202;1270;22544;-68
2022/09/16 05:54:17;;;;;;;4.10;0.70;;;;;;;12.27;87.46;99284.83;106077;1270;24232;-68
2022/09/16 05:56:49;;;;;;;9.50;1.00;;;;;;;12.31;87.45;99282.26;106075;1270;24917;-67
2022/09/16 05:59:22;;;;;;;6.80;0.90;;;;;;;12.35;87.38;99281.08;105888;1270;22519;-71
2022/09/16 06:01:54;;;;;;;5.40;0.90;;;;;;;12.41;87.47;99285.74;105982;1270;22540;-73
2022/09/16 06:04:26;;;;;;;5.20;0.70;;;;;;;12.48;87.66;99288.26;105999;1270;24428;-69
2022/09/16 06:06:57;;;;;;;7.60;1.00;;;;;;;12.53;87.54;99280.19;106060;1270;24345;-69
2022/09/16 06:09:31;;;;;;;3.50;0.70;;;;;;;12.59;87.63;99285.98;106497;1270;22572;-68
2022/09/16 06:12:03;;;;;;;6.00;0.80;;;;;;;12.65;87.72;99287.41;106089;1270;24303;-66
2022/09/16 06:14:34;;;;;;;3.50;0.70;;;;;;;12.71;87.65;99284.84;106103;1270;22544;-67
2022/09/16 06:17:05;;;;;;;4.90;0.90;;;;;;;12.77;87.43;99278.09;105951;1270;22541;-70
2022/09/16 06:19:37;;;;;;;5.10;0.80;;;;;;;12.82;87.16;99274.36;106120;1270;25262;-67
2022/09/16 06:22:08;;;;;;;7.00;0.90;;;;;;;12.85;87.06;99274.23;106076;1270;22546;-68
2022/09/16 06:24:40;;;;;;;5.20;0.90;;;;;;;12.90;87.21;99276.45;108006;1269;22663;-69
2022/09/16 06:27:12;;;;;;;4.20;0.80;;;;;;;12.94;87.03;99273.73;105961;1270;24388;-68
2022/09/16 06:29:44;;;;;;;7.60;0.80;;;;;;;12.97;87.00;99272.89;106659;1270;22713;-69
2022/09/16 06:32:15;;;;;;;6.80;0.80;;;;;;;13.03;87.30;99273.42;107806;1269;22542;-69
2022/09/16 06:34:46;;;;;;;3.70;0.90;;;;;;;13.11;87.02;99271.30;106192;1270;25249;-68
2022/09/16 06:37:18;;;;;;;5.70;1.00;;;;;;;13.19;86.95;99274.35;106090;1270;24975;-69
2022/09/16 06:39:49;;;;;;;12.80;1.10;;;;;;;13.29;86.79;99273.21;106009;1270;25254;-68
2022/09/16 06:42:21;;;;;;;4.80;1.10;;;;;;;13.39;86.71;99271.19;106082;1270;25414;-68
2022/09/16 06:44:52;;;;;;;5.90;1.10;;;;;;;13.48;86.56;99268.02;106056;1270;22863;-67
2022/09/16 06:47:24;;;;;;;4.20;0.90;;;;;;;13.53;85.87;99271.90;106123;1270;25589;-70
2022/09/16 06:49:56;;;;;;;14.00;1.30;;;;;;;13.56;85.56;99274.73;106550;1269;22984;-68
2022/09/16 06:52:28;;;;;;;7.60;1.30;;;;;;;13.59;85.37;99275.61;106109;1270;25434;-67
2022/09/16 06:55:00;;;;;;;7.10;1.00;;;;;;;13.59;84.57;99276.52;106121;1270;23617;-67
2022/09/16 06:57:32;;;;;;;4.40;0.70;;;;;;;13.61;84.61;99280.34;106121;1270;25566;-68
2022/09/16 07:00:05;;;;;;;5.40;1.00;;;;;;;13.62;84.48;99280.58;106090;1270;22534;-69
2022/09/16 07:02:37;;;;;;;4.80;1.00;;;;;;;13.66;84.69;99282.91;106242;1270;26836;-70
2022/09/16 07:05:10;;;;;;;7.00;1.10;;;;;;;13.71;84.06;99290.25;106077;1270;22559;-68
2022/09/16 07:07:42;;;;;;;7.00;1.00;;;;;;;13.76;84.09;99288.98;106301;1270;25239;-68
2022/09/16 07:10:14;;;;;;;12.00;1.20;;;;;;;13.83;83.87;99291.36;106666;1270;22519;-67
2022/09/16 07:12:45;;;;;;;5.70;1.10;;;;;;;13.88;83.29;99291.67;106188;1270;22539;-67
2022/09/16 07:15:17;;;;;;;4.90;0.90;;;;;;;13.92;83.02;99291.95;106151;1269;22493;-67
2022/09/16 07:17:53;;;;;;;4.50;1.00;;;;;;;13.97;82.89;99286.34;106012;1270;22528;-67
2022/09/16 07:20:24;;;;;;;3.90;0.90;;;;;;;14.05;83.16;99284.77;106013;1270;24341;-68
2022/09/16 07:22:55;;;;;;;5.30;0.80;;;;;;;14.11;82.47;99290.52;106176;1270;22687;-68
2022/09/16 07:25:27;;;;;;;5.50;1.20;;;;;;;14.12;82.38;99292.15;106123;1270;22544;-69
2022/09/16 07:27:58;;;;;;;3.80;0.80;;;;;;;14.12;82.12;99293.02;106409;1270;24325;-68
2022/09/16 07:30:33;;;;;;;4.10;0.70;;;;;;;14.11;81.76;99297.42;106209;1270;24236;-67
2022/09/16 07:33:04;;;;;;;4.60;0.50;;;;;;;14.09;81.45;99292.54;106171;1270;22531;-68
2022/09/16 07:35:37;;;;;;;6.70;0.70;;;;;;;14.08;81.79;99290.51;106298;1270;23948;-68
2022/09/16 07:38:10;;;;;;;4.30;0.70;;;;;;;14.09;81.08;99291.00;106157;1270;22559;-69
2022/09/16 07:40:41;;;;;;;3.90;0.60;;;;;;;14.09;81.29;99290.59;106499;1270;26278;-69
2022/09/16 07:43:13;;;;;;;7.30;0.80;;;;;;;14.11;81.29;99287.87;106273;1270;23003;-70
2022/09/16 07:45:44;;;;;;;6.90;0.70;;;;;;;14.12;81.18;99290.27;105965;1270;24265;-67
2022/09/16 07:48:16;;;;;;;3.00;0.70;;;;;;;14.12;80.70;99288.02;106413;1270;22537;-68
2022/09/16 07:50:56;;;;;;;3.20;0.60;;;;;;;14.12;80.53;99285.41;106964;1270;25456;-67
2022/09/16 07:53:30;;;;;;;4.50;0.60;;;;;;;14.09;80.28;99292.36;106001;1269;25370;-67
2022/09/16 07:56:07;;;;;;;4.60;0.60;;;;;;;14.09;80.56;99297.08;106082;1270;23437;-66
2022/09/16 07:58:39;;;;;;;4.10;0.80;;;;;;;14.14;80.59;99295.77;105922;1270;22547;-66
2022/09/16 08:01:11;;;;;;;4.00;0.90;;;;;;;14.18;80.25;99301.48;105838;1270;24355;-67
2022/09/16 08:03:44;;;;;;;4.80;0.70;;;;;;;14.22;79.57;99300.16;106084;1270;22592;-67
2022/09/16 08:06:17;;;;;;;4.70;1.00;;;;;;;14.27;79.65;99295.16;106826;1269;25445;-67
2022/09/16 08:08:51;;;;;;;8.70;0.70;;;;;;;14.29;79.12;99296.73;106191;1270;22704;-66
2022/09/16 08:11:23;;;;;;;7.40;1.20;;;;;;;14.31;79.32;99301.11;105801;1271;22617;-66
2022/09/16 08:13:55;;;;;;;5.70;0.80;;;;;;;14.32;78.90;99307.22;106334;1270;24241;-66
2022/09/16 08:16:26;;;;;;;7.10;0.70;;;;;;;14.31;78.30;99306.89;106204;1270;22564;-67
2022/09/16 08:18:59;;;;;;;7.20;1.10;;;;;;;14.31;78.44;99306.26;105980;1270;22573;-65
2022/09/16 08:21:31;;;;;;;3.80;0.70;;;;;;;14.33;78.53;99302.63;105831;1270;23050;-67
2022/09/16 08:24:03;;;;;;;3.00;0.60;;;;;;;14.34;77.74;99306.13;106179;1270;25493;-66
2022/09/16 08:26:35;;;;;;;3.70;0.50;;;;;;;14.31;77.50;99299.37;106156;1270;25390;-66
2022/09/16 08:29:07;;;;;;;3.90;0.40;;;;;;;14.29;77.28;99297.88;105877;1270;27090;-67
2022/09/16 08:31:38;;;;;;;4.50;0.50;;;;;;;14.27;77.15;99292.56;105844;1270;24300;-66
2022/09/16 08:34:10;;;;;;;5.20;0.50;;;;;;;14.29;77.85;99293.47;105988;1270;22538;-66
2022/09/16 08:36:41;;;;;;;1.90;0.50;;;;;;;14.36;77.34;99296.72;105907;1270;23313;-68
2022/09/16 08:39:13;;;;;;;4.60;0.50;;;;;;;14.43;76.72;99295.96;105916;1270;25250;-65
2022/09/16 08:42:01;;;;;;;3.10;0.50;;;;;;;14.48;76.40;99298.30;105868;1270;24397;-66
2022/09/16 08:44:42;;;;;;;2.30;0.40;;;;;;;14.54;75.76;99303.86;105866;1270;24233;-66
2022/09/16 08:47:17;;;;;;;;;;;;;;;14.62;76.15;99303.36;106183;1270;22531;-65
2022/09/16 08:49:53;;;;;;;3.50;0.70;;;;;;;14.72;75.66;99302.55;105983;1270;22538;-66
2022/09/16 08:52:31;;;;;;;3.80;0.60;;;;;;;14.81;74.34;99300.90;105949;1270;23075;-67
2022/09/16 08:55:06;;;;;;;4.40;0.50;;;;;;;14.88;74.92;99302.92;105780;1270;24315;-66
2022/09/16 08:57:56;;;;;;;5.60;0.60;;;;;;;14.92;74.27;99310.27;105869;1270;24341;-66
2022/09/16 09:00:28;;;;;;;7.00;0.50;;;;;;;14.94;73.84;99317.50;105970;1270;24317;-66
2022/09/16 09:03:08;;;;;;;4.90;0.60;;;;;;;14.95;73.23;99314.67;105812;1270;25129;-66
2022/09/16 09:05:46;;;;;;;2.70;0.60;;;;;;;14.97;73.34;99315.77;106647;1270;22623;-66
2022/09/16 09:08:31;;;;;;;9.30;0.50;;;;;;;15.01;72.96;99310.65;105868;1270;23201;-66
2022/09/16 09:11:08;;;;;;;8.40;0.40;;;;;;;15.00;71.98;99311.23;105820;1270;23833;-68
2022/09/16 09:14:02;;;;;;;4.40;0.60;;;;;;;14.93;71.90;99310.77;105960;1270;22544;-66
2022/09/16 09:16:44;;;;;;;3.20;0.40;;;;;;;14.88;71.71;99313.13;105952;1268;22707;-66
2022/09/16 09:19:31;;;;;;;3.60;0.40;;;;;;;14.92;72.11;99307.46;106066;1270;23800;-66
2022/09/16 09:22:12;;;;;;;7.00;0.30;;;;;;;15.03;71.74;99306.23;106022;1270;24289;-67
2022/09/16 09:24:58;;;;;;;2.30;0.40;;;;;;;15.12;70.89;99307.86;106222;1269;24316;-66
2022/09/16 09:27:39;;;;;;;5.60;0.50;;;;;;;15.15;70.80;99302.11;105740;1270;22609;-65
2022/09/16 09:30:19;;;;;;;2.40;0.40;;;;;;;15.17;71.08;99305.15;105931;1270;22538;-66
2022/09/16 09:33:08;;;;;;;3.50;0.50;;;;;;;15.24;70.56;99301.90;109793;1269;22409;-66
2022/09/16 09:35:56;;;;;;;4.70;0.50;;;;;;;15.31;70.50;99301.18;109773;1270;23260;-66
2022/09/16 09:38:53;;;;;;;4.00;0.40;;;;;;;15.41;70.86;99297.96;109776;1270;22460;-66
2022/09/16 09:41:30;;;;;;;2.50;0.20;;;;;;;15.53;69.08;99298.61;109577;1269;22531;-66
2022/09/16 09:44:22;;;;;;;1.90;0.30;;;;;;;15.59;69.83;99288.28;105837;1270;25307;-66
2022/09/16 09:46:58;;;;;;;1.40;0.40;;;;;;;15.65;68.62;99287.48;107118;1270;22535;-66
2022/09/16 09:49:32;;;;;;;5.10;0.40;;;;;;;15.72;69.51;99287.20;106124;1270;22552;-65
2022/09/16 09:52:11;;;;;;;4.30;0.30;;;;;;;15.82;68.58;99291.84;105959;1270;22550;-65
2022/09/16 09:54:49;;;;;;;4.30;0.40;;;;;;;15.86;70.29;99291.83;105959;1270;22534;-66
2022/09/16 09:57:29;;;;;;;3.20;0.30;;;;;;;15.76;72.16;99291.88;106162;1270;24253;-66
2022/09/16 10:00:09;;;;;;;1.40;0.20;;;;;;;15.52;72.09;99293.86;105938;1271;24433;-65
2022/09/16 10:02:39;;;;;;;;;;;;;;;15.27;72.73;99298.56;105953;1270;22867;-65
2022/09/16 10:05:15;;;;;;;;;;;;;;;15.09;73.11;99301.91;105873;1270;24312;-63
2022/09/16 10:07:47;;;;;;;4.30;0.40;;;;;;;14.90;73.49;99288.48;105911;1271;24731;-66
2022/09/16 10:10:22;;;;;;;1.30;0.30;;;;;;;14.81;74.10;99285.55;106123;1269;22544;-68
2022/09/16 10:12:54;;;;;;;1.90;0.40;;;;;;;14.78;74.95;99283.89;105850;1271;22525;-66
2022/09/16 10:15:27;;;;;;;1.90;0.30;;;;;;;14.79;75.11;99281.13;106383;1270;22528;-66
2022/09/16 10:18:02;;;;;;;5.00;0.40;;;;;;;14.82;74.86;99279.75;106776;1270;25459;-66
2022/09/16 10:20:37;;;;;;;1.80;0.20;;;;;;;14.85;74.87;99280.98;106100;1270;23191;-66
2022/09/16 10:23:13;;;;;;;6.10;0.40;;;;;;;14.86;74.22;99280.83;105996;1269;24279;-66
2022/09/16 10:25:46;;;;;;;3.10;0.30;;;;;;;14.87;74.68;99283.02;105878;1271;22532;-65
2022/09/16 10:28:26;;;;;;;2.90;0.30;;;;;;;14.90;74.23;99281.33;105935;1270;23230;-65
2022/09/16 10:31:00;;;;;;;4.40;0.60;;;;;;;14.92;74.32;99280.52;106290;1270;22575;-67
2022/09/16 10:33:35;;;;;;;1.30;0.20;;;;;;;14.93;73.03;99273.46;106801;1269;22561;-65
2022/09/16 10:36:10;;;;;;;1.60;0.20;;;;;;;14.90;72.47;99271.66;106041;1270;24267;-66
2022/09/16 10:38:44;;;;;;;4.60;0.40;;;;;;;14.91;72.36;99266.18;106524;1269;23980;-66
2022/09/16 10:41:20;;;;;;;1.40;0.20;;;;;;;15.00;71.83;99269.29;106026;1270;22468;-67
2022/09/16 10:43:54;;;;;;;3.80;0.50;;;;;;;15.07;70.95;99273.52;106071;1270;26775;-65
2022/09/16 10:46:25;;;;;;;2.50;0.30;;;;;;;15.14;70.37;99269.33;106470;1270;22579;-65
2022/09/16 10:49:02;;;;;;;2.70;0.40;;;;;;;15.20;70.11;99271.95;105885;1271;24253;-66
2022/09/16 10:51:34;;;;;;;3.70;0.30;;;;;;;15.26;70.44;99270.32;106505;1270;26232;-65
2022/09/16 10:54:07;;;;;;;2.30;0.20;;;;;;;15.37;69.84;99268.40;106267;1271;24824;-65
2022/09/16 10:56:51;;;;;;;2.30;0.30;;;;;;;15.44;68.77;99264.80;105891;1270;22620;-66
2022/09/16 10:59:23;;;;;;;2.90;0.20;;;;;;;15.48;68.71;99256.52;106169;1270;26504;-66
2022/09/16 11:02:05;;;;;;;2.00;0.20;;;;;;;15.58;68.38;99255.07;106337;1270;22535;-68
2022/09/16 11:04:59;;;;;;;3.10;0.20;;;;;;;15.69;66.52;99252.08;106422;1270;22547;-65
2022/09/16 11:07:42;;;;;;;5.30;0.40;;;;;;;15.83;67.65;99251.23;106411;1270;22652;-66
2022/09/16 11:10:22;;;;;;;4.40;0.40;;;;;;;16.03;67.02;99254.66;106632;1271;26628;-66
2022/09/16 11:13:26;;;;;;;1.00;0.20;;;;;;;16.13;66.18;99249.55;105986;1271;22550;-66
2022/09/16 11:16:10;;;;;;;1.40;0.30;;;;;;;16.26;66.94;99248.70;106178;1270;25400;-65
2022/09/16 11:18:53;;;;;;;5.20;0.20;;;;;;;16.38;66.66;99247.17;105978;1270;25506;-66
2022/09/16 11:21:42;;;;;;;2.00;0.10;;;;;;;16.49;64.86;99256.17;106087;1271;22536;-68
2022/09/16 11:24:28;;;;;;;1.20;0.10;;;;;;;16.49;63.58;99255.91;106041;1270;22537;-65
2022/09/16 11:27:11;;;;;;;1.60;0.20;;;;;;;16.44;62.38;99255.73;106058;1270;22545;-66
2022/09/16 11:30:02;;;;;;;1.60;0.10;;;;;;;16.48;62.46;99255.42;105898;1271;22529;-66
2022/09/16 11:32:48;;;;;;;2.60;0.20;;;;;;;16.53;62.71;99240.27;106036;1270;22528;-66
2022/09/16 11:35:42;;;;;;;5.60;0.30;;;;;;;16.62;62.03;99232.98;106127;1270;22567;-66
2022/09/16 11:38:25;;;;;;;3.70;0.40;;;;;;;16.70;62.20;99225.97;106080;1269;24414;-65
2022/09/16 11:41:03;;;;;;;1.80;0.20;;;;;;;16.80;61.81;99224.36;106523;1271;23883;-65
2022/09/16 11:44:03;;;;;;;3.10;0.20;;;;;;;16.84;61.91;99221.66;106148;1271;25721;-67
2022/09/16 11:46:44;;;;;;;12.80;0.50;;;;;;;16.91;61.84;99227.64;105987;1270;22606;-66
2022/09/16 11:49:35;;;;;;;2.80;0.20;;;;;;;16.96;61.37;99220.86;105777;1270;25258;-66
2022/09/16 11:52:21;;;;;;;2.70;0.50;;;;;;;17.00;60.84;99223.50;106138;1270;25407;-67
2022/09/16 11:55:14;;;;;;;3.40;0.20;;;;;;;17.02;60.40;99228.64;105743;1271;25445;-67
2022/09/16 11:57:51;;;;;;;3.80;0.10;;;;;;;17.07;59.72;99235.30;105962;1270;23019;-66
2022/09/16 12:00:33;;;;;;;4.40;0.30;;;;;;;17.14;59.89;99229.02;106091;1270;22707;-66
2022/09/16 12:03:11;;;;;;;4.70;0.40;;;;;;;17.20;58.68;99226.70;105959;1270;25439;-65
2022/09/16 12:05:48;;;;;;;1.40;0.20;;;;;;;17.25;58.78;99228.97;105893;1270;22536;-66
2022/09/16 12:08:24;;;;;;;1.50;0.20;;;;;;;17.24;58.73;99226.98;106283;1270;25393;-65